createdAt,value
2023-03-26T00:00:40.772Z,98043.84
2023-03-26T00:05:45.034Z,98033.06
2023-03-26T00:10:47.304Z,98039.69
2023-03-26T00:15:48.887Z,98032.31
2023-03-26T00:20:52.635Z,98026.16
2023-03-26T00:25:56.328Z,98018.09
2023-03-26T00:31:03.896Z,98025.25
2023-03-26T00:36:10.047Z,98039.31
2023-03-26T00:41:25.104Z,98040.22
2023-03-26T00:46:31.439Z,98042.88
2023-03-26T00:51:34.142Z,98051.91
2023-03-26T00:56:36.016Z,98043.59
2023-03-26T01:06:42.106Z,98041.53
2023-03-26T01:11:44.957Z,98030.63
2023-03-26T01:16:58.086Z,98031.72
2023-03-26T01:22:00.639Z,98019.28
2023-03-26T01:27:39.053Z,98013.91
2023-03-26T01:33:05.582Z,98015.38
2023-03-26T01:38:12.924Z,98010.59
2023-03-26T01:43:29.628Z,98003.44
2023-03-26T01:48:39.534Z,97986.41
2023-03-26T01:53:45.043Z,97982.66
2023-03-26T01:59:01.561Z,97963.22
2023-03-26T02:04:20.909Z,97954.22
2023-03-26T02:09:26.161Z,97976.34
2023-03-26T02:14:30.416Z,97980.94
2023-03-26T02:19:32.046Z,97987.50
2023-03-26T02:24:33.646Z,97989.31
2023-03-26T02:29:39.930Z,97982.91
2023-03-26T02:34:41.937Z,97979.41
2023-03-26T02:39:43.643Z,97975.88
2023-03-26T02:44:45.301Z,97972.94
2023-03-26T02:49:46.944Z,97971.41
2023-03-26T02:54:48.593Z,97986.13
2023-03-26T02:59:50.482Z,97982.66
2023-03-26T03:04:52.090Z,97977.16
2023-03-26T03:09:53.677Z,97972.09
2023-03-26T03:14:55.265Z,97974.28
2023-03-26T03:19:56.943Z,97995.00
2023-03-26T03:25:00.013Z,97983.69
2023-03-26T03:30:01.656Z,97985.28
2023-03-26T03:35:03.425Z,98001.19
2023-03-26T03:40:08.349Z,98000.09
2023-03-26T03:45:10.497Z,97998.72
2023-03-26T03:50:12.124Z,98003.31
2023-03-26T03:55:14.171Z,98006.25
2023-03-26T04:00:16.270Z,98001.72
2023-03-26T04:05:17.853Z,97997.50
2023-03-26T04:10:19.543Z,97997.34
2023-03-26T04:15:21.177Z,97994.47
2023-03-26T04:20:23.322Z,98002.56
2023-03-26T04:25:30.442Z,97998.16
2023-03-26T04:30:33.769Z,97984.56
2023-03-26T04:35:35.655Z,98004.59
2023-03-26T04:40:39.183Z,97996.28
2023-03-26T04:45:40.799Z,97982.03
2023-03-26T04:50:44.415Z,97995.84
2023-03-26T04:55:57.382Z,97984.16
2023-03-26T05:01:09.713Z,97990.97
2023-03-26T05:06:13.845Z,97983.41
2023-03-26T05:11:15.568Z,97986.16
2023-03-26T05:16:17.333Z,97991.53
2023-03-26T05:21:18.996Z,97977.97
2023-03-26T05:26:21.059Z,97966.53
2023-03-26T05:31:22.747Z,97969.50
2023-03-26T05:36:24.676Z,97960.56
2023-03-26T05:41:26.439Z,97970.03
2023-03-26T05:46:29.017Z,97958.88
2023-03-26T05:51:30.718Z,97986.91
2023-03-26T05:56:32.396Z,97974.31
2023-03-26T06:01:34.060Z,97961.06
2023-03-26T06:06:36.148Z,97956.25
2023-03-26T06:11:37.755Z,97959.25
2023-03-26T06:16:39.404Z,97960.06
2023-03-26T06:21:41.112Z,97959.69
2023-03-26T06:26:43.105Z,97948.38
2023-03-26T06:31:44.770Z,97929.16
2023-03-26T06:36:48.825Z,97926.91
2023-03-26T06:41:50.480Z,97944.56
2023-03-26T06:46:52.216Z,97952.34
2023-03-26T06:51:53.891Z,97955.41
2023-03-26T06:56:56.454Z,97942.28
2023-03-26T07:01:58.086Z,97949.69
2023-03-26T07:06:59.744Z,97955.41
2023-03-26T07:12:01.444Z,97953.44
2023-03-26T07:17:03.072Z,97944.91
2023-03-26T07:22:06.502Z,97942.00
2023-03-26T07:27:32.609Z,97924.81
2023-03-26T07:32:40.401Z,97936.44
2023-03-26T07:38:01.183Z,97921.16
2023-03-26T07:44:01.625Z,97911.84
2023-03-26T07:49:04.902Z,97910.56
2023-03-26T07:54:09.042Z,97901.81
2023-03-26T07:59:10.595Z,97899.03
2023-03-26T08:04:39.313Z,97879.09
2023-03-26T08:09:57.066Z,97870.94
2023-03-26T08:15:11.082Z,97873.19
2023-03-26T08:20:21.416Z,97852.56
2023-03-26T08:25:28.215Z,97852.59
2023-03-26T08:30:31.039Z,97851.00
2023-03-26T08:35:35.299Z,97838.91
2023-03-26T08:40:55.875Z,97842.75
2023-03-26T08:46:21.560Z,97831.13
2023-03-26T08:51:45.766Z,97821.16
2023-03-26T08:57:18.283Z,97825.97
2023-03-26T09:02:22.932Z,97816.50
2023-03-26T09:07:44.271Z,97799.25
2023-03-26T09:13:07.032Z,97789.00
2023-03-26T09:18:20.726Z,97787.47
2023-03-26T09:23:52.682Z,97773.22
2023-03-26T09:29:09.291Z,97770.19
2023-03-26T09:34:13.631Z,97754.56
2023-03-26T09:39:36.511Z,97742.44
2023-03-26T09:45:12.125Z,97744.16
2023-03-26T09:50:31.838Z,97735.06
2023-03-26T09:55:51.082Z,97704.72
2023-03-26T10:01:20.491Z,97697.72
2023-03-26T10:06:41.484Z,97695.22
2023-03-26T10:12:06.065Z,97683.84
2023-03-26T10:17:35.852Z,97660.09
2023-03-26T10:23:16.788Z,97641.22
2023-03-26T10:28:51.133Z,97626.00
2023-03-26T10:34:10.392Z,97624.25
2023-03-26T10:39:56.377Z,97605.84
2023-03-26T10:45:31.686Z,97598.78
2023-03-26T10:51:00.165Z,97612.88
2023-03-26T10:56:15.024Z,97603.91
2023-03-26T11:01:36.020Z,97585.72
2023-03-26T11:06:51.682Z,97571.56
2023-03-26T11:12:26.553Z,97564.09
2023-03-26T11:17:54.965Z,97555.63
2023-03-26T11:23:22.937Z,97549.09
2023-03-26T11:29:03.309Z,97532.72
2023-03-26T11:34:13.557Z,97510.34
2023-03-26T11:39:23.269Z,97498.88
2023-03-26T11:44:30.909Z,97482.03
2023-03-26T11:49:32.998Z,97468.97
2023-03-26T11:54:34.830Z,97447.59
2023-03-26T11:59:57.165Z,97431.78
2023-03-26T12:05:15.596Z,97414.88
2023-03-26T12:10:25.006Z,97403.34
2023-03-26T12:15:27.965Z,97388.13
2023-03-26T12:20:29.569Z,97386.28
2023-03-26T12:25:39.214Z,97394.25
2023-03-26T12:30:50.833Z,97376.56
2023-03-26T12:35:53.338Z,97356.19
2023-03-26T12:42:52.888Z,97336.13
2023-03-26T12:47:55.730Z,97321.31
2023-03-26T12:52:23.309Z,97300.56
2023-03-26T12:57:47.242Z,97296.03
2023-03-26T13:03:04.127Z,97286.00
2023-03-26T13:08:49.812Z,97277.53
2023-03-26T13:14:13.991Z,97275.22
2023-03-26T13:19:28.889Z,97270.25
2023-03-26T13:24:39.926Z,97257.78
2023-03-26T13:30:01.738Z,97253.28
2023-03-26T13:35:22.360Z,97239.00
2023-03-26T13:40:36.584Z,97224.00
2023-03-26T13:46:20.333Z,97221.63
2023-03-26T13:51:30.994Z,97205.25
2023-03-26T13:56:43.261Z,97212.63
2023-03-26T14:01:53.603Z,97205.94
2023-03-26T14:07:16.249Z,97198.94
2023-03-26T14:12:51.647Z,97187.03
2023-03-26T14:18:16.028Z,97183.66
2023-03-26T14:23:55.469Z,97181.56
2023-03-26T14:29:12.493Z,97172.69
2023-03-26T14:34:23.574Z,97171.59
2023-03-26T14:39:51.945Z,97162.91
2023-03-26T14:45:24.095Z,97147.66
2023-03-26T14:50:50.551Z,97128.66
2023-03-26T14:56:04.661Z,97113.66
2023-03-26T15:01:27.116Z,97116.19
2023-03-26T15:07:07.087Z,97102.59
2023-03-26T15:12:23.603Z,97104.16
2023-03-26T15:17:37.203Z,97101.03
2023-03-26T15:23:09.391Z,97110.19
2023-03-26T15:28:48.769Z,97111.72
2023-03-26T15:34:20.160Z,97118.31
2023-03-26T15:39:58.656Z,97101.06
2023-03-26T15:45:20.375Z,97103.03
2023-03-26T15:50:46.727Z,97107.81
2023-03-26T15:56:03.133Z,97102.78
2023-03-26T16:01:41.955Z,97100.00
2023-03-26T16:07:11.803Z,97110.78
2023-03-26T16:12:17.350Z,97076.28
2023-03-26T16:17:23.471Z,97071.97
2023-03-26T16:22:57.176Z,97065.78
2023-03-26T16:28:28.482Z,97062.69
2023-03-26T16:33:39.041Z,97059.44
2023-03-26T16:38:54.902Z,97062.94
2023-03-26T16:44:11.021Z,97063.91
2023-03-26T16:49:19.536Z,97060.41
2023-03-26T16:54:37.177Z,97076.66
2023-03-26T16:59:46.822Z,97103.25
2023-03-26T17:05:45.914Z,97107.09
2023-03-26T17:11:08.557Z,97113.66
2023-03-26T17:16:27.512Z,97116.81
2023-03-26T17:22:25.511Z,97114.06
2023-03-26T17:27:56.805Z,97117.56
2023-03-26T17:33:24.160Z,97099.22
2023-03-26T17:38:27.238Z,97101.91
2023-03-26T17:43:46.141Z,97153.00
2023-03-26T17:48:57.697Z,97178.66
2023-03-26T17:54:00.891Z,97170.34
2023-03-26T17:59:11.297Z,97144.47
2023-03-26T18:04:27.758Z,97138.84
2023-03-26T18:09:49.129Z,97131.91
2023-03-26T18:15:30.481Z,97123.69
2023-03-26T18:20:37.362Z,97107.13
2023-03-26T18:25:41.546Z,97090.13
2023-03-26T18:30:49.311Z,97082.22
2023-03-26T18:35:55.748Z,97096.50
2023-03-26T18:40:59.546Z,97110.13
2023-03-26T18:46:04.286Z,97120.75
2023-03-26T18:51:08.152Z,97107.78
2023-03-26T18:56:41.004Z,97108.97
2023-03-26T19:01:47.260Z,97101.72
2023-03-26T19:06:54.482Z,97104.13
2023-03-26T19:11:59.418Z,97121.38
2023-03-26T19:17:05.867Z,97114.28
2023-03-26T19:22:12.751Z,97103.28
2023-03-26T19:27:16.121Z,97090.72
2023-03-26T19:32:32.511Z,97089.84
2023-03-26T19:37:35.237Z,97095.56
2023-03-26T19:42:42.978Z,97099.22
2023-03-26T19:47:56.924Z,97095.34
2023-03-26T19:53:16.779Z,97088.94
2023-03-26T19:58:20.401Z,97094.88
2023-03-26T20:03:31.373Z,97093.94
2023-03-26T20:08:33.975Z,97104.41
2023-03-26T20:13:37.817Z,97105.97
2023-03-26T20:18:40.641Z,97092.22
2023-03-26T20:23:44.438Z,97092.81
2023-03-26T20:28:52.741Z,97082.81
2023-03-26T20:33:56.577Z,97095.44
2023-03-26T20:38:58.971Z,97110.13
2023-03-26T20:44:01.551Z,97099.63
2023-03-26T20:49:04.958Z,97092.78
2023-03-26T20:54:08.620Z,97102.81
2023-03-26T20:59:15.006Z,97109.09
2023-03-26T21:04:17.920Z,97099.31
2023-03-26T21:09:24.094Z,97093.06
2023-03-26T21:14:32.245Z,97089.94
2023-03-26T21:19:34.154Z,97066.91
2023-03-26T21:25:01.483Z,97048.72
2023-03-26T21:30:06.053Z,97054.13
2023-03-26T21:35:08.688Z,97065.84
2023-03-26T21:40:16.419Z,97071.75
2023-03-26T21:45:19.439Z,97077.81
2023-03-26T21:50:23.620Z,97067.06
2023-03-26T21:55:25.948Z,97047.94
2023-03-26T22:00:43.209Z,97037.31
2023-03-26T22:06:08.652Z,97048.50
2023-03-26T22:11:12.315Z,97044.66
2023-03-26T22:16:14.021Z,97047.22
2023-03-26T22:21:15.649Z,97030.22
2023-03-26T22:26:17.213Z,97016.47
2023-03-26T22:31:19.410Z,97010.94
2023-03-26T22:36:23.150Z,96999.47
2023-03-26T22:41:25.849Z,96972.72
2023-03-26T22:46:28.924Z,96956.16
2023-03-26T22:51:31.018Z,96953.47
2023-03-26T22:56:32.897Z,96938.41
2023-03-26T23:01:34.867Z,96931.97
2023-03-26T23:06:36.757Z,96922.59
2023-03-26T23:11:39.510Z,96921.16
2023-03-26T23:16:42.410Z,96904.28
2023-03-26T23:21:44.116Z,96890.00
2023-03-26T23:26:50.768Z,96889.00
2023-03-26T23:31:54.040Z,96893.75
2023-03-26T23:36:55.754Z,96910.34
2023-03-26T23:41:57.359Z,96901.53
2023-03-26T23:47:00.569Z,96883.22
2023-03-26T23:52:02.175Z,96895.19
2023-03-26T23:57:04.111Z,96886.41
